Time;durP1;ratioP1;P1;durP2;ratioP2;P2;SDS_P1;SDS_P2;PMS_P1;PMS_P2;Temp;Humidity;BMP_temperature;BMP_pressure;BME280_temperature;BME280_humidity;BME280_pressure;Samples;Min_cycle;Max_cycle;Signal;HPM_P1;HPM_P2
2024/01/05 00:01:13;;;;;;;7.57;7.07;;;1.40;72.50;;;;;;6308180;28;20236;-80
2024/01/05 00:04:16;;;;;;;7.40;6.70;;;1.50;72.60;;;;;;6314087;28;20237;-80
2024/01/05 00:07:20;;;;;;;6.83;6.43;;;1.40;72.70;;;;;;6294429;28;20248;-78
2024/01/05 00:10:25;;;;;;;7.20;6.67;;;1.40;72.70;;;;;;6295148;28;20221;-80
2024/01/05 00:13:28;;;;;;;6.63;6.23;;;1.40;72.80;;;;;;6299269;28;20784;-80
2024/01/05 00:16:31;;;;;;;7.13;6.63;;;1.50;72.20;;;;;;6286956;28;20322;-80
2024/01/05 00:19:34;;;;;;;7.07;6.57;;;1.50;72.00;;;;;;6291332;28;20732;-81
2024/01/05 00:22:38;;;;;;;7.17;6.60;;;1.50;72.20;;;;;;6301827;28;20795;-82
2024/01/05 00:25:42;;;;;;;7.60;7.07;;;1.50;72.40;;;;;;6299293;28;20373;-80
2024/01/05 00:28:47;;;;;;;6.70;6.30;;;1.40;72.70;;;;;;6301052;28;20251;-79
2024/01/05 00:31:50;;;;;;;7.13;6.60;;;1.40;72.70;;;;;;6305848;28;20244;-80
2024/01/05 00:34:53;;;;;;;7.30;6.77;;;1.40;72.50;;;;;;6303008;28;20240;-81
2024/01/05 00:37:56;;;;;;;6.97;6.47;;;1.40;72.50;;;;;;6287860;28;20636;-81
2024/01/05 00:41:03;;;;;;;7.37;6.80;;;1.40;72.50;;;;;;6280959;28;20374;-80
2024/01/05 00:44:06;;;;;;;6.80;6.40;;;1.40;72.50;;;;;;6301611;28;20243;-80
2024/01/05 00:47:09;;;;;;;7.10;6.60;;;1.40;72.50;;;;;;6293551;28;20237;-79
2024/01/05 00:50:13;;;;;;;7.73;7.03;;;1.40;72.70;;;;;;6300429;28;20265;-78
2024/01/05 00:53:16;;;;;;;8.27;7.67;;;1.40;72.80;;;;;;6300941;28;20620;-78
2024/01/05 00:56:22;;;;;;;7.63;7.03;;;1.40;73.10;;;;;;6305592;28;20247;-79
2024/01/05 00:59:25;;;;;;;7.57;6.97;;;1.40;73.10;;;;;;6296453;28;20264;-80
2024/01/05 01:02:28;;;;;;;7.77;7.17;;;1.40;72.90;;;;;;6291597;28;20243;-81
2024/01/05 01:05:31;;;;;;;6.80;6.40;;;1.40;72.70;;;;;;6303361;28;20240;-80
2024/01/05 01:08:34;;;;;;;7.93;7.33;;;1.40;72.90;;;;;;6299454;28;20229;-80
2024/01/05 01:11:39;;;;;;;7.10;6.53;;;1.40;73.10;;;;;;6285753;28;20741;-81
2024/01/05 01:14:42;;;;;;;7.43;7.00;;;1.40;73.10;;;;;;6289768;28;20257;-81
2024/01/05 01:17:45;;;;;;;7.57;6.97;;;1.40;73.10;;;;;;6296062;28;20225;-81
2024/01/05 01:20:48;;;;;;;7.80;7.23;;;1.40;73.20;;;;;;6291796;28;20225;-80
2024/01/05 01:23:52;;;;;;;8.07;7.50;;;1.30;73.30;;;;;;6302747;28;20236;-79
2024/01/05 01:26:57;;;;;;;7.57;6.97;;;1.10;73.80;;;;;;6295472;28;20236;-79
2024/01/05 01:30:00;;;;;;;7.27;6.93;;;1.20;73.90;;;;;;6303497;28;20232;-79
2024/01/05 01:33:04;;;;;;;8.20;7.60;;;1.20;74.00;;;;;;6302562;28;20323;-81
2024/01/05 01:36:08;;;;;;;7.43;6.93;;;1.20;74.10;;;;;;6300252;28;20826;-81
2024/01/05 01:39:11;;;;;;;6.87;6.30;;;1.20;74.00;;;;;;6307362;28;20224;-81
2024/01/05 01:42:17;;;;;;;7.57;7.00;;;1.30;73.30;;;;;;6300828;28;20233;-79
2024/01/05 01:45:21;;;;;;;7.43;6.97;;;1.20;73.40;;;;;;6290747;28;20248;-81
2024/01/05 01:48:24;;;;;;;7.00;6.40;;;1.20;73.40;;;;;;6294999;28;20237;-82
2024/01/05 01:51:31;;;;;;;6.80;6.43;;;1.20;73.10;;;;;;6307603;28;20958;-81
2024/01/05 01:54:36;;;;;;;6.50;6.10;;;1.20;73.20;;;;;;6294567;28;20279;-81
2024/01/05 01:57:41;;;;;;;5.73;5.33;;;1.20;72.70;;;;;;6291114;28;20233;-80
2024/01/05 02:00:45;;;;;;;5.67;5.13;;;1.20;73.00;;;;;;6299853;28;20237;-82
2024/01/05 02:03:49;;;;;;;5.67;5.37;;;1.20;72.80;;;;;;6305089;28;20232;-81
2024/01/05 02:06:52;;;;;;;5.83;5.47;;;1.30;72.50;;;;;;6302457;28;20285;-81
2024/01/05 02:09:55;;;;;;;6.17;5.77;;;1.20;72.50;;;;;;6299802;28;20236;-81
2024/01/05 02:13:00;;;;;;;6.17;5.67;;;1.20;72.50;;;;;;6303885;28;20302;-80
2024/01/05 02:16:04;;;;;;;5.87;5.47;;;1.30;72.60;;;;;;6313306;28;20243;-81
2024/01/05 02:19:07;;;;;;;6.67;6.07;;;1.30;72.20;;;;;;6307204;28;20233;-78
2024/01/05 02:22:13;;;;;;;6.53;6.20;;;1.30;72.60;;;;;;6307035;28;20863;-79
2024/01/05 02:25:18;;;;;;;5.60;5.30;;;1.20;72.60;;;;;;6306452;28;20499;-81
2024/01/05 02:28:21;;;;;;;5.77;5.37;;;1.20;72.50;;;;;;6304829;28;20320;-79
2024/01/05 02:31:24;;;;;;;6.60;6.00;;;1.30;72.70;;;;;;6304123;28;20273;-79
2024/01/05 02:34:27;;;;;;;6.43;5.90;;;1.30;72.50;;;;;;6303584;28;20371;-80
2024/01/05 02:37:30;;;;;;;6.20;5.90;;;1.20;72.70;;;;;;6304441;28;20592;-81
2024/01/05 02:40:35;;;;;;;6.53;6.03;;;1.20;73.00;;;;;;6302655;28;20240;-81
2024/01/05 02:43:38;;;;;;;6.40;5.90;;;1.20;73.10;;;;;;6300030;28;20289;-79
2024/01/05 02:46:41;;;;;;;6.33;6.03;;;1.20;73.20;;;;;;6307612;28;20330;-80
2024/01/05 02:49:45;;;;;;;6.43;6.07;;;1.20;73.40;;;;;;6301050;28;20243;-80
2024/01/05 02:52:48;;;;;;;6.13;5.90;;;1.10;73.70;;;;;;6308685;28;20233;-80
2024/01/05 02:55:53;;;;;;;6.93;6.53;;;1.10;73.90;;;;;;6301089;28;20853;-79
2024/01/05 02:58:56;;;;;;;6.60;6.10;;;1.20;74.00;;;;;;6312756;28;20295;-79
2024/01/05 03:02:00;;;;;;;6.10;5.70;;;1.20;74.00;;;;;;6294388;28;20259;-82
2024/01/05 03:05:05;;;;;;;5.60;5.20;;;1.10;73.80;;;;;;6296185;28;20237;-80
2024/01/05 03:08:08;;;;;;;6.23;5.93;;;1.20;73.90;;;;;;6296716;28;20740;-79
2024/01/05 03:11:13;;;;;;;5.63;5.20;;;1.20;73.60;;;;;;6296540;28;20229;-81
2024/01/05 03:14:16;;;;;;;5.67;5.37;;;1.20;73.50;;;;;;6304150;28;20237;-80
2024/01/05 03:17:19;;;;;;;6.00;5.60;;;1.20;73.50;;;;;;6306743;28;20330;-79
2024/01/05 03:20:22;;;;;;;5.97;5.40;;;1.10;73.40;;;;;;6297180;28;20861;-79
2024/01/05 03:23:25;;;;;;;6.10;5.77;;;1.10;73.50;;;;;;6311026;28;20241;-80
2024/01/05 03:26:30;;;;;;;6.40;5.80;;;1.10;73.40;;;;;;6309350;28;20931;-77
2024/01/05 03:29:33;;;;;;;7.00;6.40;;;1.10;73.50;;;;;;6297295;28;20713;-80
2024/01/05 03:32:36;;;;;;;6.67;6.20;;;1.10;73.40;;;;;;6295673;28;20236;-80
2024/01/05 03:35:41;;;;;;;6.10;5.80;;;1.10;73.60;;;;;;6293167;28;20245;-80
2024/01/05 03:38:44;;;;;;;6.43;6.03;;;1.10;73.90;;;;;;6309055;28;20221;-80
2024/01/05 03:41:49;;;;;;;7.03;6.63;;;1.10;74.00;;;;;;6294866;28;20232;-79
2024/01/05 03:44:52;;;;;;;6.33;6.03;;;1.10;73.90;;;;;;6295731;28;20312;-80
2024/01/05 03:47:56;;;;;;;6.97;6.57;;;1.10;74.00;;;;;;6303842;28;20234;-80
2024/01/05 03:50:59;;;;;;;6.50;6.20;;;1.10;73.90;;;;;;6301158;28;20353;-80
2024/01/05 03:54:02;;;;;;;6.57;6.27;;;1.00;74.10;;;;;;6298201;28;20237;-81
2024/01/05 03:57:07;;;;;;;6.80;6.40;;;1.00;74.40;;;;;;6291628;28;20235;-80
2024/01/05 04:00:11;;;;;;;6.20;5.90;;;1.00;74.50;;;;;;6311285;28;20233;-79
2024/01/05 04:03:14;;;;;;;7.13;6.57;;;1.00;74.60;;;;;;6302493;28;20244;-80
2024/01/05 04:06:20;;;;;;;7.50;6.73;;;1.00;74.90;;;;;;6295437;28;20741;-82
2024/01/05 04:09:24;;;;;;;6.93;6.63;;;1.00;74.90;;;;;;6298233;28;20386;-81
2024/01/05 04:12:28;;;;;;;7.33;6.83;;;1.00;74.70;;;;;;6302696;28;20263;-80
2024/01/05 04:15:36;;;;;;;7.43;7.03;;;1.00;74.90;;;;;;6303244;28;20245;-80
2024/01/05 04:18:39;;;;;;;7.90;7.30;;;1.10;75.10;;;;;;6298419;28;20240;-79
2024/01/05 04:21:42;;;;;;;7.13;6.77;;;1.00;75.40;;;;;;6298018;28;20626;-80
2024/01/05 04:24:45;;;;;;;7.47;6.97;;;1.00;75.30;;;;;;6291179;28;20225;-80
2024/01/05 04:27:50;;;;;;;7.03;6.63;;;1.00;75.10;;;;;;6303021;28;20240;-79
2024/01/05 04:30:53;;;;;;;7.40;7.00;;;1.10;75.00;;;;;;6290708;28;20767;-81
2024/01/05 04:33:56;;;;;;;7.77;7.23;;;1.10;74.90;;;;;;6289891;28;20225;-80
2024/01/05 04:37:00;;;;;;;7.23;6.83;;;1.10;75.00;;;;;;6300729;28;20244;-80
2024/01/05 04:40:05;;;;;;;7.57;6.93;;;1.00;75.30;;;;;;6305851;28;20631;-79
2024/01/05 04:43:10;;;;;;;7.60;7.10;;;1.10;75.20;;;;;;6291400;28;20243;-77
2024/01/05 04:46:13;;;;;;;8.13;7.63;;;1.10;75.10;;;;;;6303841;28;20775;-80
2024/01/05 04:49:16;;;;;;;7.90;7.33;;;1.10;75.10;;;;;;6293533;28;20298;-79
2024/01/05 04:52:20;;;;;;;7.27;6.87;;;1.00;75.30;;;;;;6302466;28;20724;-80
2024/01/05 04:55:23;;;;;;;8.00;7.50;;;1.00;75.50;;;;;;6304595;28;20367;-83
2024/01/05 04:58:27;;;;;;;7.23;6.80;;;1.00;75.60;;;;;;6301519;28;20278;-80
2024/01/05 05:01:30;;;;;;;7.20;6.70;;;1.00;75.60;;;;;;6305643;28;20244;-80
2024/01/05 05:04:34;;;;;;;8.57;7.77;;;1.00;75.60;;;;;;6297553;28;20251;-81
2024/01/05 05:07:37;;;;;;;7.43;6.80;;;1.00;75.90;;;;;;6296607;28;20454;-81
2024/01/05 05:10:40;;;;;;;7.33;6.83;;;0.80;76.10;;;;;;6307441;28;20247;-80
2024/01/05 05:13:45;;;;;;;7.07;6.47;;;0.90;76.10;;;;;;6306661;28;20237;-80
2024/01/05 05:16:48;;;;;;;7.50;7.00;;;0.80;75.90;;;;;;6304145;28;20294;-80
2024/01/05 05:19:54;;;;;;;7.37;6.87;;;0.80;76.20;;;;;;6309540;28;20470;-79
2024/01/05 05:22:57;;;;;;;7.50;6.80;;;0.80;76.10;;;;;;6305215;28;20232;-80
2024/01/05 05:26:01;;;;;;;7.60;6.90;;;0.80;76.20;;;;;;6311153;28;20228;-80
2024/01/05 05:29:05;;;;;;;6.93;6.43;;;0.80;76.40;;;;;;6306547;28;20229;-79
2024/01/05 05:32:08;;;;;;;7.00;6.60;;;0.70;76.50;;;;;;6305598;28;20243;-80
2024/01/05 05:35:12;;;;;;;7.10;6.57;;;0.70;76.80;;;;;;6312961;28;20309;-80
2024/01/05 05:38:17;;;;;;;7.50;6.80;;;0.60;76.80;;;;;;6313060;28;20232;-81
2024/01/05 05:41:20;;;;;;;7.87;6.80;;;0.60;76.60;;;;;;6304281;28;20232;-78
2024/01/05 05:44:25;;;;;;;8.00;7.37;;;0.60;76.90;;;;;;6304425;28;20247;-80
2024/01/05 05:47:28;;;;;;;7.97;7.30;;;0.60;77.00;;;;;;6308838;28;20251;-80
2024/01/05 05:50:34;;;;;;;8.13;7.47;;;0.60;77.10;;;;;;6308130;28;20740;-80
2024/01/05 05:53:37;;;;;;;7.37;6.97;;;0.60;77.30;;;;;;6311354;28;20282;-80
2024/01/05 05:56:40;;;;;;;7.53;7.00;;;0.60;77.20;;;;;;6305258;28;20241;-78
2024/01/05 05:59:45;;;;;;;7.83;7.33;;;0.60;77.30;;;;;;6303777;28;20333;-78
2024/01/05 06:02:48;;;;;;;7.23;6.73;;;0.60;77.30;;;;;;6301374;28;20244;-79
2024/01/05 06:05:51;;;;;;;7.40;6.90;;;0.50;77.30;;;;;;6305514;28;20608;-80
2024/01/05 06:08:54;;;;;;;7.07;6.67;;;0.60;77.50;;;;;;6302216;28;20363;-77
2024/01/05 06:12:00;;;;;;;6.50;6.10;;;0.60;77.20;;;;;;6307641;28;20254;-77
2024/01/05 06:15:07;;;;;;;6.93;6.50;;;0.60;76.80;;;;;;6293990;28;20315;-77
2024/01/05 06:18:11;;;;;;;6.60;6.30;;;0.60;76.80;;;;;;6303642;28;20229;-80
2024/01/05 06:21:14;;;;;;;8.07;7.37;;;0.60;76.80;;;;;;6300534;28;20233;-80
2024/01/05 06:24:17;;;;;;;6.30;6.00;;;0.60;76.50;;;;;;6306325;28;20287;-79
2024/01/05 06:27:20;;;;;;;7.23;6.83;;;0.60;76.60;;;;;;6310539;28;20240;-80
2024/01/05 06:30:38;;;;;;;6.90;6.30;;;0.60;76.80;;;;;;6301639;28;20264;-81
2024/01/05 06:33:42;;;;;;;6.87;6.47;;;0.60;76.80;;;;;;6304571;28;20754;-79
2024/01/05 06:36:46;;;;;;;6.97;6.27;;;0.60;76.70;;;;;;6311721;28;20311;-77
2024/01/05 06:39:49;;;;;;;7.03;6.40;;;0.60;76.70;;;;;;6313219;28;20228;-77
2024/01/05 06:42:53;;;;;;;6.43;6.13;;;0.60;77.00;;;;;;6299442;28;20224;-77
2024/01/05 06:45:58;;;;;;;6.53;6.03;;;0.50;77.10;;;;;;6307961;28;20233;-77
2024/01/05 06:49:01;;;;;;;6.77;6.27;;;0.50;77.10;;;;;;6306622;28;20892;-78
2024/01/05 06:52:05;;;;;;;6.37;5.93;;;0.50;77.50;;;;;;6313487;28;20722;-77
2024/01/05 06:55:09;;;;;;;7.87;6.57;;;0.50;77.50;;;;;;6297010;28;20263;-77
2024/01/05 06:58:12;;;;;;;6.23;5.97;;;0.50;77.90;;;;;;6298832;28;20233;-74
2024/01/05 07:01:17;;;;;;;7.13;6.63;;;0.40;78.20;;;;;;6307353;28;20236;-76
2024/01/05 07:04:20;;;;;;;7.13;6.60;;;0.40;78.20;;;;;;6300925;28;20971;-76
2024/01/05 07:07:24;;;;;;;7.33;6.73;;;0.40;78.40;;;;;;6305728;28;20268;-76
2024/01/05 07:10:27;;;;;;;7.70;7.10;;;0.40;78.90;;;;;;6304733;28;20241;-77
2024/01/05 07:13:30;;;;;;;7.83;7.20;;;0.40;78.90;;;;;;6304980;28;20243;-77
2024/01/05 07:16:35;;;;;;;8.50;7.53;;;0.30;79.30;;;;;;6298442;28;20245;-78
2024/01/05 07:19:39;;;;;;;8.90;8.30;;;0.30;79.70;;;;;;6308848;28;20245;-76
2024/01/05 07:22:43;;;;;;;8.67;7.97;;;0.20;79.90;;;;;;6306732;28;20858;-78
2024/01/05 07:25:46;;;;;;;9.00;8.30;;;0.20;80.20;;;;;;6302543;28;20244;-76
2024/01/05 07:28:49;;;;;;;9.27;8.40;;;0.20;80.40;;;;;;6296149;28;20240;-75
2024/01/05 07:31:54;;;;;;;9.13;8.53;;;0.20;80.50;;;;;;6309913;28;20326;-77
2024/01/05 07:34:57;;;;;;;10.47;9.33;;;0.20;80.50;;;;;;6310719;28;20267;-78
2024/01/05 07:38:00;;;;;;;9.80;9.00;;;0.20;80.70;;;;;;6301545;28;20246;-78
2024/01/05 07:41:04;;;;;;;9.40;8.60;;;0.10;80.80;;;;;;6311591;28;20323;-78
2024/01/05 07:44:07;;;;;;;10.20;9.50;;;0.20;81.00;;;;;;6291751;28;20344;-77
2024/01/05 07:47:12;;;;;;;12.13;9.50;;;0.20;81.10;;;;;;6302173;28;20327;-77
2024/01/05 07:50:15;;;;;;;10.27;9.37;;;0.10;81.30;;;;;;6304269;28;20314;-79
2024/01/05 07:53:18;;;;;;;11.10;9.90;;;0.20;81.40;;;;;;6306685;28;20340;-77
2024/01/05 07:56:22;;;;;;;10.43;9.47;;;0.10;81.60;;;;;;6302083;28;20243;-78
2024/01/05 07:59:25;;;;;;;10.03;9.27;;;0.20;81.50;;;;;;6312772;28;20337;-76
2024/01/05 08:02:29;;;;;;;10.70;9.47;;;0.20;81.40;;;;;;6308967;28;20268;-77
2024/01/05 08:05:33;;;;;;;10.60;9.50;;;0.20;81.50;;;;;;6302030;28;20754;-77
2024/01/05 08:08:36;;;;;;;10.90;10.00;;;0.20;81.30;;;;;;6301578;28;20661;-75
2024/01/05 08:11:39;;;;;;;9.90;9.10;;;0.20;81.50;;;;;;6300302;28;20240;-78
2024/01/05 08:14:42;;;;;;;10.97;10.03;;;0.20;81.40;;;;;;6305125;28;20247;-79
2024/01/05 08:17:47;;;;;;;10.53;9.43;;;0.20;81.30;;;;;;6310166;28;20249;-76
2024/01/05 08:20:50;;;;;;;10.53;9.43;;;0.20;81.40;;;;;;6310452;28;20228;-78
2024/01/05 08:23:53;;;;;;;10.73;9.83;;;0.20;81.20;;;;;;6311027;28;20244;-76
2024/01/05 08:26:56;;;;;;;9.93;8.93;;;0.20;81.20;;;;;;6309245;28;20232;-76
2024/01/05 08:30:00;;;;;;;10.37;9.33;;;0.20;81.20;;;;;;6301280;28;20291;-75
2024/01/05 08:33:04;;;;;;;11.10;10.07;;;0.20;81.10;;;;;;6304031;28;20232;-77
2024/01/05 08:36:08;;;;;;;10.80;9.13;;;0.20;81.10;;;;;;6294943;28;20253;-75
2024/01/05 08:39:11;;;;;;;9.73;8.93;;;0.20;81.30;;;;;;6301901;28;20229;-76
2024/01/05 08:42:15;;;;;;;9.57;8.80;;;0.30;81.30;;;;;;6302081;28;20225;-78
2024/01/05 08:45:19;;;;;;;10.33;9.30;;;0.30;81.30;;;;;;6296811;28;20289;-78
2024/01/05 08:48:23;;;;;;;10.13;9.23;;;0.30;81.40;;;;;;6310567;28;20229;-76
2024/01/05 08:51:27;;;;;;;10.57;9.67;;;0.30;81.40;;;;;;6309919;28;20636;-76
2024/01/05 08:54:30;;;;;;;10.00;9.17;;;0.40;81.30;;;;;;6308890;28;20253;-75
2024/01/05 08:57:33;;;;;;;9.97;9.17;;;0.50;81.40;;;;;;6296961;28;20228;-76
2024/01/05 09:00:36;;;;;;;10.43;9.33;;;0.50;81.30;;;;;;6309986;28;20240;-77
2024/01/05 09:03:41;;;;;;;9.40;8.57;;;0.50;81.00;;;;;;6310148;28;20232;-78
2024/01/05 09:06:45;;;;;;;10.07;9.07;;;0.50;81.00;;;;;;6299808;28;20271;-77
2024/01/05 09:09:48;;;;;;;9.40;8.70;;;0.60;80.70;;;;;;6302111;28;20373;-76
2024/01/05 09:12:51;;;;;;;8.63;8.03;;;0.60;80.40;;;;;;6309019;28;20240;-77
2024/01/05 09:15:54;;;;;;;8.87;8.17;;;0.60;80.40;;;;;;6309934;28;20232;-76
2024/01/05 09:18:59;;;;;;;9.53;8.63;;;0.60;80.50;;;;;;6294593;28;20386;-76
2024/01/05 09:22:03;;;;;;;9.03;8.43;;;0.50;80.40;;;;;;6310429;28;20235;-77
2024/01/05 09:25:07;;;;;;;8.37;7.80;;;0.60;80.40;;;;;;6297409;28;20248;-78
2024/01/05 09:28:11;;;;;;;8.67;8.07;;;0.60;80.40;;;;;;6301535;28;20251;-78
2024/01/05 09:31:14;;;;;;;8.47;7.87;;;0.60;80.40;;;;;;6302127;28;20241;-75
2024/01/05 09:34:18;;;;;;;8.33;7.83;;;0.60;80.40;;;;;;6300342;28;20669;-76
2024/01/05 09:37:22;;;;;;;8.47;7.87;;;0.60;80.30;;;;;;6309867;28;20759;-77
2024/01/05 09:40:25;;;;;;;8.40;7.80;;;0.50;80.00;;;;;;6297239;28;20232;-76
2024/01/05 09:43:28;;;;;;;8.33;7.80;;;0.50;80.10;;;;;;6294351;28;20784;-77
2024/01/05 09:46:32;;;;;;;8.60;8.10;;;0.50;80.00;;;;;;6310032;28;20270;-77
2024/01/05 09:49:39;;;;;;;9.40;8.50;;;0.50;80.20;;;;;;6298583;28;20240;-75
2024/01/05 09:52:43;;;;;;;9.30;8.60;;;0.50;80.30;;;;;;6305400;28;20853;-77
2024/01/05 09:55:48;;;;;;;9.00;8.43;;;0.60;80.40;;;;;;6304949;28;20233;-78
2024/01/05 09:58:52;;;;;;;8.57;7.97;;;0.60;80.10;;;;;;6308341;28;20392;-77
2024/01/05 10:01:56;;;;;;;9.77;8.87;;;0.60;79.90;;;;;;6310252;28;20224;-75
2024/01/05 10:05:01;;;;;;;8.57;8.03;;;0.60;80.00;;;;;;6302322;28;20733;-77
2024/01/05 10:08:06;;;;;;;8.57;7.87;;;0.60;79.70;;;;;;6298686;28;20283;-77
2024/01/05 10:11:09;;;;;;;8.20;7.60;;;0.60;79.80;;;;;;6306496;28;20236;-75
2024/01/05 10:14:12;;;;;;;8.17;7.67;;;0.70;79.70;;;;;;6297453;28;20352;-77
2024/01/05 10:17:16;;;;;;;7.70;7.27;;;0.70;79.20;;;;;;6300804;28;20989;-76
2024/01/05 10:20:21;;;;;;;7.33;6.83;;;0.70;79.30;;;;;;6302588;28;20237;-77
2024/01/05 10:23:25;;;;;;;8.00;7.33;;;0.80;79.60;;;;;;6312887;28;20307;-76
2024/01/05 10:26:28;;;;;;;8.33;7.67;;;0.80;79.50;;;;;;6307307;28;20241;-77
2024/01/05 10:29:31;;;;;;;7.83;7.33;;;0.80;79.10;;;;;;6306305;28;20270;-77
2024/01/05 10:32:36;;;;;;;7.90;7.30;;;0.80;79.10;;;;;;6303542;28;20233;-77
2024/01/05 10:35:41;;;;;;;8.03;7.43;;;0.80;79.10;;;;;;6304917;28;20946;-76
2024/01/05 10:38:48;;;;;;;8.00;7.43;;;0.80;79.00;;;;;;6306534;28;20233;-76
2024/01/05 10:41:51;;;;;;;7.80;7.40;;;0.70;79.30;;;;;;6307767;28;20374;-77
2024/01/05 10:44:56;;;;;;;7.37;6.97;;;0.70;79.40;;;;;;6308375;28;20244;-77
2024/01/05 10:48:00;;;;;;;7.63;7.13;;;0.70;79.50;;;;;;6306147;28;20284;-75
2024/01/05 10:51:06;;;;;;;7.33;6.93;;;0.80;79.50;;;;;;6312754;28;20235;-77
2024/01/05 10:54:10;;;;;;;7.53;6.93;;;0.80;79.40;;;;;;6298774;28;20318;-74
2024/01/05 10:57:15;;;;;;;7.57;7.17;;;0.70;79.50;;;;;;6305264;28;20245;-77
2024/01/05 11:00:24;;;;;;;7.77;7.27;;;0.60;79.60;;;;;;6308848;28;20250;-79
2024/01/05 11:03:37;;;;;;;6.70;6.40;;;0.60;79.60;;;;;;6313146;28;20267;-78
2024/01/05 11:06:41;;;;;;;7.77;7.37;;;0.60;79.90;;;;;;6304580;28;20320;-77
2024/01/05 11:09:53;;;;;;;8.30;7.70;;;0.60;80.00;;;;;;6302301;28;20248;-78
2024/01/05 11:13:11;;;;;;;7.80;7.30;;;0.60;80.10;;;;;;6309936;28;20268;-78
2024/01/05 11:16:43;;;;;;;7.97;7.30;;;0.60;80.20;;;;;;6303712;28;20362;-78
2024/01/05 11:20:15;;;;;;;7.37;7.00;;;0.60;80.40;;;;;;6303623;28;20229;-77
2024/01/05 11:23:21;;;;;;;7.37;7.00;;;0.60;80.20;;;;;;6308840;28;20236;-77
2024/01/05 11:26:34;;;;;;;7.90;7.30;;;0.50;80.50;;;;;;6297455;28;20260;-76
2024/01/05 11:29:51;;;;;;;8.10;7.60;;;0.50;80.50;;;;;;6304312;28;20239;-76
2024/01/05 11:32:55;;;;;;;8.20;7.50;;;0.50;80.50;;;;;;6302602;28;20229;-79
2024/01/05 11:35:59;;;;;;;8.30;7.70;;;0.60;80.60;;;;;;6300587;28;20244;-78
2024/01/05 11:39:03;;;;;;;8.73;7.97;;;0.50;80.80;;;;;;6302359;28;20734;-78
2024/01/05 11:42:07;;;;;;;7.90;7.33;;;0.50;81.00;;;;;;6311275;28;20606;-77
2024/01/05 11:45:12;;;;;;;8.53;7.63;;;0.50;81.00;;;;;;6301792;28;20233;-75
2024/01/05 11:48:46;;;;;;;8.67;8.03;;;0.60;80.80;;;;;;6306880;28;20250;-77
2024/01/05 11:51:50;;;;;;;8.13;7.47;;;0.60;80.90;;;;;;6306845;28;20239;-76
2024/01/05 11:55:10;;;;;;;8.60;7.87;;;0.60;80.90;;;;;;6300259;28;20618;-78
2024/01/05 11:58:17;;;;;;;8.30;7.80;;;0.60;80.80;;;;;;6292064;28;20692;-77
2024/01/05 12:01:21;;;;;;;7.73;7.23;;;0.60;80.80;;;;;;6301174;28;20732;-75
2024/01/05 12:04:24;;;;;;;8.10;7.50;;;0.60;80.70;;;;;;6311914;28;20251;-74
2024/01/05 12:07:29;;;;;;;8.37;7.77;;;0.50;80.80;;;;;;6308066;28;21434;-75
2024/01/05 12:10:35;;;;;;;8.47;7.87;;;0.50;81.10;;;;;;6298526;28;20237;-77
2024/01/05 12:13:39;;;;;;;9.13;8.53;;;0.50;81.00;;;;;;6299299;28;20755;-76
2024/01/05 12:16:42;;;;;;;8.80;8.20;;;0.50;80.80;;;;;;6305179;28;20237;-76
2024/01/05 12:19:46;;;;;;;8.43;7.80;;;0.50;81.00;;;;;;6290856;28;20312;-77
2024/01/05 12:22:52;;;;;;;8.37;7.87;;;0.40;81.20;;;;;;6300584;28;20233;-75
2024/01/05 12:26:02;;;;;;;8.13;7.53;;;0.50;81.20;;;;;;6304896;28;20240;-75
2024/01/05 12:29:08;;;;;;;8.53;7.97;;;0.50;81.20;;;;;;6302577;28;20225;-78
2024/01/05 12:32:11;;;;;;;7.87;7.27;;;0.60;81.00;;;;;;6307404;28;20229;-76
2024/01/05 12:35:15;;;;;;;7.70;7.27;;;0.60;80.80;;;;;;6307098;28;20676;-77
2024/01/05 12:38:23;;;;;;;8.33;7.83;;;0.40;80.90;;;;;;6299774;28;20239;-76
2024/01/05 12:41:27;;;;;;;7.73;7.27;;;0.50;81.00;;;;;;6310568;28;20233;-78
2024/01/05 12:44:30;;;;;;;7.70;7.30;;;0.50;81.00;;;;;;6300398;28;20816;-77
2024/01/05 12:47:34;;;;;;;7.37;6.97;;;0.50;80.90;;;;;;6292361;28;20328;-77
2024/01/05 12:50:37;;;;;;;9.07;8.37;;;0.50;80.60;;;;;;6303971;28;20248;-76
2024/01/05 12:53:40;;;;;;;7.67;7.27;;;0.50;80.90;;;;;;6305587;28;20305;-79
2024/01/05 12:56:48;;;;;;;7.80;7.40;;;0.50;81.20;;;;;;6309732;28;20236;-78
2024/01/05 12:59:51;;;;;;;8.07;7.57;;;0.60;81.10;;;;;;6309797;28;20660;-76
2024/01/05 13:02:54;;;;;;;8.60;8.10;;;0.60;81.10;;;;;;6301663;28;20235;-76
2024/01/05 13:06:07;;;;;;;8.43;7.83;;;0.60;80.90;;;;;;6301987;28;20252;-77
2024/01/05 13:09:11;;;;;;;9.17;8.43;;;0.60;81.00;;;;;;6309735;28;20262;-76
2024/01/05 13:12:15;;;;;;;9.00;8.40;;;0.60;81.00;;;;;;6288798;28;20245;-77
2024/01/05 13:15:18;;;;;;;10.23;9.53;;;0.60;80.90;;;;;;6305603;28;20245;-78
2024/01/05 13:18:22;;;;;;;9.03;8.37;;;0.60;80.90;;;;;;6306193;28;20245;-78
2024/01/05 13:21:26;;;;;;;8.97;8.07;;;0.60;81.00;;;;;;6305453;28;20324;-77
2024/01/05 13:24:29;;;;;;;9.33;8.53;;;0.60;80.90;;;;;;6306556;28;20361;-77
2024/01/05 13:27:34;;;;;;;8.03;7.60;;;0.60;80.80;;;;;;6291186;28;20376;-78
2024/01/05 13:30:38;;;;;;;9.47;8.50;;;0.60;80.70;;;;;;6307580;28;20593;-78
2024/01/05 13:33:42;;;;;;;9.20;8.60;;;0.60;80.70;;;;;;6309894;28;20321;-77
2024/01/05 13:36:45;;;;;;;9.93;9.23;;;0.60;80.90;;;;;;6312956;28;20229;-75
2024/01/05 13:39:49;;;;;;;10.00;9.20;;;0.60;80.80;;;;;;6312668;28;20244;-78
2024/01/05 13:42:53;;;;;;;9.67;8.77;;;0.60;81.00;;;;;;6303784;28;20228;-77
2024/01/05 13:45:56;;;;;;;8.77;8.17;;;0.60;80.80;;;;;;6307561;28;20363;-75
2024/01/05 13:48:59;;;;;;;9.67;8.93;;;0.60;81.00;;;;;;6314607;28;20232;-75
2024/01/05 13:52:03;;;;;;;9.00;8.30;;;0.60;80.90;;;;;;6308718;28;20237;-77
2024/01/05 13:55:06;;;;;;;10.03;9.30;;;0.60;81.10;;;;;;6312929;28;20229;-74
2024/01/05 13:58:11;;;;;;;9.87;9.13;;;0.60;81.30;;;;;;6305550;28;20671;-78
2024/01/05 14:01:14;;;;;;;10.13;9.23;;;0.60;81.20;;;;;;6303307;28;20362;-75
2024/01/05 14:04:17;;;;;;;9.90;9.17;;;0.60;81.20;;;;;;6304598;28;20236;-78
2024/01/05 14:07:20;;;;;;;11.07;9.70;;;0.50;81.40;;;;;;6309699;28;20281;-76
2024/01/05 14:10:23;;;;;;;10.33;9.53;;;0.50;81.50;;;;;;6311532;28;20244;-77
2024/01/05 14:13:28;;;;;;;11.77;10.57;;;0.50;81.70;;;;;;6297796;28;20243;-77
2024/01/05 14:16:32;;;;;;;11.80;10.67;;;0.50;81.80;;;;;;6307113;28;20907;-78
2024/01/05 14:19:35;;;;;;;10.70;9.80;;;0.50;81.80;;;;;;6305864;28;20607;-78
2024/01/05 14:22:38;;;;;;;10.73;9.83;;;0.50;81.60;;;;;;6299936;28;20240;-77
2024/01/05 14:25:41;;;;;;;10.70;9.80;;;0.50;81.90;;;;;;6306494;28;20264;-78
2024/01/05 14:28:47;;;;;;;11.17;10.17;;;0.50;81.90;;;;;;6302162;28;20945;-78
2024/01/05 14:31:51;;;;;;;12.13;10.93;;;0.50;82.00;;;;;;6310478;28;20270;-76
2024/01/05 14:34:54;;;;;;;11.00;10.00;;;0.50;81.90;;;;;;6306206;28;20241;-77
2024/01/05 14:37:57;;;;;;;10.07;9.17;;;0.50;81.70;;;;;;6313122;28;20315;-77
2024/01/05 14:41:04;;;;;;;11.33;10.37;;;0.50;81.70;;;;;;6305752;28;20229;-74
2024/01/05 14:44:09;;;;;;;10.90;10.10;;;0.50;81.80;;;;;;6313421;28;20281;-79
2024/01/05 14:47:12;;;;;;;11.10;10.20;;;0.50;81.90;;;;;;6306808;28;20309;-78
2024/01/05 14:50:15;;;;;;;10.77;9.77;;;0.50;82.10;;;;;;6313743;28;20275;-77
2024/01/05 14:53:18;;;;;;;10.70;9.90;;;0.50;82.10;;;;;;6312349;28;20714;-76
2024/01/05 14:56:21;;;;;;;11.40;10.40;;;0.50;82.10;;;;;;6305568;28;20240;-78
2024/01/05 14:59:26;;;;;;;11.83;10.60;;;0.50;82.40;;;;;;6303368;28;20766;-78
2024/01/05 15:02:29;;;;;;;12.47;11.43;;;0.50;82.30;;;;;;6304519;28;20284;-78
2024/01/05 15:05:32;;;;;;;11.67;10.67;;;0.60;82.20;;;;;;6311685;28;20660;-76
2024/01/05 15:08:36;;;;;;;12.47;11.37;;;0.50;82.20;;;;;;6306770;28;20757;-76
2024/01/05 15:11:39;;;;;;;12.03;11.10;;;0.50;82.30;;;;;;6305877;28;20668;-76
2024/01/05 15:14:44;;;;;;;12.60;11.30;;;0.50;82.60;;;;;;6307162;28;20243;-78
2024/01/05 15:17:47;;;;;;;13.30;11.97;;;0.50;82.40;;;;;;6310553;28;20337;-78
2024/01/05 15:20:50;;;;;;;13.50;12.30;;;0.50;82.30;;;;;;6304980;28;20228;-78
2024/01/05 15:23:53;;;;;;;14.13;12.73;;;0.50;82.50;;;;;;6308249;28;20236;-76
2024/01/05 15:26:56;;;;;;;13.83;12.53;;;0.50;82.80;;;;;;6308959;28;20236;-75
2024/01/05 15:30:01;;;;;;;14.63;12.53;;;0.50;82.90;;;;;;6310846;28;20277;-78
2024/01/05 15:33:05;;;;;;;13.93;12.53;;;0.50;83.00;;;;;;6313124;28;20236;-78
2024/01/05 15:36:08;;;;;;;13.37;12.17;;;0.40;83.20;;;;;;6312418;28;20289;-75
2024/01/05 15:39:12;;;;;;;13.90;12.60;;;0.50;83.20;;;;;;6308114;28;20228;-79
2024/01/05 15:42:15;;;;;;;15.03;13.43;;;0.50;83.30;;;;;;6300777;28;20675;-80
2024/01/05 15:45:20;;;;;;;15.07;13.63;;;0.50;83.20;;;;;;6308898;28;20260;-78
2024/01/05 15:48:23;;;;;;;14.73;13.23;;;0.50;83.20;;;;;;6301834;28;20245;-80
2024/01/05 15:51:29;;;;;;;14.57;13.23;;;0.50;83.30;;;;;;6312479;28;20557;-79
2024/01/05 15:54:33;;;;;;;14.07;12.73;;;0.60;83.00;;;;;;6312584;28;20236;-79
2024/01/05 15:57:36;;;;;;;14.07;12.67;;;0.60;83.00;;;;;;6306996;28;20251;-77
2024/01/05 16:00:41;;;;;;;14.70;13.20;;;0.60;83.00;;;;;;6311033;28;20286;-79
2024/01/05 16:03:44;;;;;;;16.27;14.57;;;0.60;83.20;;;;;;6303109;28;20675;-77
2024/01/05 16:06:47;;;;;;;16.20;13.77;;;0.60;83.20;;;;;;6304205;28;20236;-78